Tiempo atmosférico en la estación meteorológica de San Bartolome Tirajana, Lomo Pedro Alfonso, Las Palmas (806 m.)



Fecha
DESCASC
Temp. máxima en grados centígrados (hora)
DESCASC
Temp. mínima en grados centígrados (hora)
DESCASC
Temp. media en grados centígrados
DESCASC
Racha de viento máxima en m/sg (hora)
DESCASC
Velocidad máxima media en intervalos de 10 minutos(hora)
DESCASC
Precipitaciones diarias en mm
DESCASC
Precipitaciones de 00:00 a 06:00 en mm
DESCASC
Precipitaciones de 06:00 a 12:00 en mm
DESCASC
Precipitaciones de 12:00 a 18:00 en mm
DESCASC
Precipitaciones de 18:00 a 24:00 en mm
DESCASC
16-04-2019 23.6 (17:30) 13.3 (23:59) 18.5 6.39 (15:40) 3.61 (17:20) 0 0 0 0 0
15-04-2019 21.8 (15:30) 11.9 (06:10) 16.8 6.67 (15:20) 3.61 (18:20) 0 0 0 0 0
14-04-2019 24 (15:20) 12.8 (00:00) 18.4 6.67 (17:00) 4.17 (05:50) 0 0 0 0 0
13-04-2019 23.1 (17:20) 11.6 (00:00) 17.4 7.5 (17:20) 4.17 (14:20) 0 0 0 0 0
12-04-2019 20.5 (17:20) 9.8 (00:00) 15.2 8.33 (17:00) 4.44 (17:10) 0 0 0 0 0
11-04-2019 19.5 (17:00) 9.9 (00:00) 14.7 7.78 (16:50) 4.44 (17:00) 0 0 0 0 0
10-04-2019 -- (--) -- (--) -- -- (--) -- (--) -- 0 -- -- 0
09-04-2019 19.1 (15:40) 9.9 (00:00) 14.5 8.06 (14:40) 4.17 (14:20) 0 0 0 0 0
08-04-2019 16.3 (12:30) 10 (00:00) 13.1 7.22 (14:20) 3.89 (14:00) 0 0 0 0 0
07-04-2019 16.9 (18:30) 9.6 (00:00) 13.3 6.67 (16:40) 3.89 (17:00) 0 0 0 0 0
06-04-2019 20 (16:00) 10.1 (00:00) 15.1 15.83 (05:40) 7.5 (05:00) 0 0 0 0 0
05-04-2019 20.8 (16:00) 10.3 (00:00) 15.5 12.22 (20:20) 6.67 (18:40) 0 0 0 0 0
04-04-2019 18 (17:50) 9.7 (00:00) 13.8 11.94 (22:00) 6.11 (23:00) 1.2 1.2 0 0 0
03-04-2019 20.1 (16:10) 11 (00:00) 15.6 11.39 (17:00) 6.11 (17:00) 0 0 0 0 0
02-04-2019 20.6 (17:30) 10.2 (00:00) 15.4 10 (14:40) 4.72 (17:10) 0 0 0 0 0
01-04-2019 15.4 (11:50) 10.4 (00:00) 12.9 6.11 (13:10) 3.89 (13:10) 0 0 0 0 0
31-03-2019 15.7 (15:10) 8.8 (00:00) 12.3 6.39 (17:20) 3.61 (15:30) 0.2 0.2 0 0 0
30-03-2019 16.6 (11:50) 9.5 (00:00) 13.1 6.11 (13:20) 3.33 (11:20) 0.2 0 0 0.2 0
29-03-2019 17.9 (16:50) 9.8 (00:00) 13.8 8.89 (15:10) 5 (16:30) 0.2 0.2 0 0 0
28-03-2019 15.4 (12:50) 10.3 (00:00) 12.8 6.94 (14:10) 3.89 (15:00) 4.8 0 0 2.8 2
27-03-2019 17.4 (15:50) 10.2 (00:00) 13.8 7.22 (16:30) 3.89 (16:20) 2.8 0 0.2 2.6 0
26-03-2019 14.7 (13:20) 9.3 (00:00) 12 7.22 (17:50) 3.89 (17:40) 1.2 0 0 1.2 0
25-03-2019 13.5 (11:10) 9.8 (00:00) 11.7 9.72 (15:20) 6.39 (15:20) 9.2 0 0.2 8.8 0.2
24-03-2019 20.2 (14:10) 9.7 (00:00) 15 7.5 (13:00) 3.89 (13:10) 0 0 0 0 0
23-03-2019 22.5 (13:40) 12.7 (00:00) 17.6 8.89 (15:20) 5.28 (03:10) 0 0 0 0 0
22-03-2019 24.1 (16:40) 13.3 (00:00) 18.7 9.17 (23:40) 5 (23:50) 0 0 0 0 0
21-03-2019 23.2 (15:00) 13.5 (00:00) 18.4 6.67 (17:00) 3.89 (16:50) 0 0 0 0 0
20-03-2019 21 (15:40) 10.8 (00:00) 15.9 6.39 (14:00) 3.61 (15:10) 0 0 0 0 0
19-03-2019 21.3 (15:00) 9.8 (00:00) 15.5 7.5 (15:10) 3.89 (15:00) 0 0 0 0 0

Gráficas

Temp. máximas Temp. mínimas Temp. medias Precipitaciones Rachas de viento máximas Velocidades máximas media en intervalos de 10 minutos

Datos horarios

Fecha y hora oficial Temperatura (ºC) Velocidad del viento (km/h) Dirección del viento Racha (km/h) Dirección de racha Precipitación (mm) Presión (hPa) Tendencia (hPa) Humedad (%)
2019-04-17 23:00:00 12.2 9 Noroeste 24 Noroeste 0 -- -- 83
2019-04-17 22:00:00 12.8 9 Noroeste 16 Noroeste 0 -- -- 92
2019-04-17 21:00:00 13.3 3 Sudoeste 10 Sudeste 0.2 -- -- 95
2019-04-17 20:00:00 13.2 7 Sudeste 14 Sur 0 -- -- 94
2019-04-17 19:00:00 13.8 9 Sur 15 Sur 0 -- -- 90
2019-04-17 18:00:00 14.5 8 Sudoeste 16 Sur 0 -- -- 86
2019-04-17 17:00:00 15.8 6 Sudoeste 18 Oeste 0 -- -- 79
2019-04-17 16:00:00 15.5 10 Sudoeste 21 Sudoeste 0 -- -- 79
2019-04-17 15:00:00 16.7 9 Sudoeste 24 Sudoeste 0 -- -- 73
2019-04-17 14:00:00 16.2 9 Sudoeste 22 Sudoeste 0 -- -- 74
2019-04-17 13:00:00 17.2 10 Oeste 19 Sudoeste 0 -- -- 70
2019-04-17 12:00:00 16.1 12 Sudoeste 21 Sudoeste 0 -- -- 75
2019-04-17 11:00:00 14.9 9 Sudoeste 17 Sur 0 -- -- 79
2019-04-17 10:00:00 13.4 4 Noroeste 6 Noroeste 0 -- -- 83
2019-04-17 09:00:00 11.8 0 Calma 6 Norte 0 -- -- 87
2019-04-17 08:00:00 11.9 0 Calma -- -- 0 -- -- 89
2019-04-17 07:00:00 12.3 0 Calma 8 Sur 0 -- -- 90
2019-04-17 06:00:00 12.2 0 Calma 8 Sur 0 -- -- 90
2019-04-17 05:00:00 11.9 0 Calma 15 Este 0 -- -- 89
2019-04-17 04:00:00 12.3 7 Este 17 Este 0 -- -- 90
2019-04-17 03:00:00 12.9 0 Calma 9 Oeste 0 -- -- 58
2019-04-17 02:00:00 13.5 4 Norte 10 Este 0 -- -- 77
2019-04-17 01:00:00 13.2 4 Noroeste 12 Este 0 -- -- 89
2019-04-17 00:00:00 13.3 3 Nordeste 9 Nordeste 0 -- -- 88
2019-04-16 23:00:00 14.1 2 Sudoeste 5 Sudoeste 0 -- -- 84
2019-04-16 22:00:00 15.3 3 Norte 9 Oeste 0 -- -- 78
2019-04-16 21:00:00 18.2 2 Noroeste 19 Oeste 0 -- -- 65
2019-04-16 20:00:00 21.3 9 Noroeste 17 Oeste 0 -- -- 46
2019-04-16 19:00:00 22.6 9 Oeste 19 Oeste 0 -- -- 53
2019-04-16 18:00:00 23.3 11 Oeste 21 Oeste 0 -- -- 51
2019-04-16 17:00:00 23 12 Oeste 22 Oeste 0 -- -- 58
2019-04-16 16:00:00 22 10 Oeste 23 Oeste 0 -- -- 62
2019-04-16 15:00:00 21.6 11 Oeste 22 Sudoeste 0 -- -- 60
2019-04-16 14:00:00 21.7 11 Oeste 19 Oeste 0 -- -- 60
2019-04-16 13:00:00 19.7 8 Oeste 17 Sur 0 -- -- 67
2019-04-16 12:00:00 17.9 7 Sudoeste 13 Sur 0 -- -- 73
2019-04-16 11:00:00 15.8 3 Sudoeste 11 Sur 0 -- -- 76
2019-04-16 10:00:00 14.6 2 Oeste 9 Este 0 -- -- 77
2019-04-16 09:00:00 14.6 2 Sur 5 Sudoeste 0 -- -- 32
2019-04-16 08:00:00 14.4 4 Nordeste 6 Nordeste 0 -- -- 37
2019-04-16 07:00:00 14.3 3 Norte 4 Norte 0 -- -- 46
2019-04-16 06:00:00 14.6 0 Calma 4 Norte 0 -- -- 57
2019-04-16 05:00:00 14.3 0 Calma 5 Nordeste 0 -- -- 68
2019-04-16 04:00:00 14.2 0 Calma 4 Nordeste 0 -- -- 70
2019-04-16 03:00:00 14.6 2 Nordeste 4 Nordeste 0 -- -- 74
2019-04-16 02:00:00 14.7 0 Calma 4 Nordeste 0 -- -- 74
2019-04-16 01:00:00 14.5 0 Calma 5 Norte 0 -- -- 80
2019-04-16 00:00:00 15.1 0 Calma 4 Nordeste 0 -- -- 79
2019-04-15 23:00:00 14.8 0 Calma 4 Norte 0 -- -- 83
2019-04-15 22:00:00 15.2 0 Calma 5 Oeste 0 -- -- 82
2019-04-15 21:00:00 16 3 Sudoeste 12 Sur 0 -- -- 80
2019-04-15 20:00:00 19.1 7 Oeste 21 Oeste 0 -- -- 70
2019-04-15 19:00:00 20.4 11 Oeste 24 Oeste 0 -- -- 64
2019-04-15 18:00:00 20.9 13 Oeste 23 Oeste 0 -- -- 62
2019-04-15 17:00:00 21.4 12 Oeste 23 Sudoeste 0 -- -- 60
2019-04-15 16:00:00 21.5 10 Oeste 24 Oeste 0 -- -- 59
2019-04-15 15:00:00 21.4 10 Sudoeste 19 Sudoeste 0 -- -- 59
2019-04-15 14:00:00 20.8 9 Sudoeste 21 Sudoeste 0 -- -- 61
2019-04-15 13:00:00 20 10 Oeste 17 Sudoeste 0 -- -- 63
2019-04-15 12:00:00 18.2 5 Oeste 15 Oeste 0 -- -- 70
2019-04-15 11:00:00 17.7 6 Norte 16 Este 0 -- -- 65
2019-04-15 10:00:00 16.5 3 Sur 6 Sur 0 -- -- 45
2019-04-15 09:00:00 12.5 0 Calma 5 Oeste 0 -- -- 76
2019-04-15 08:00:00 14.4 0 Calma 8 Oeste 0 -- -- 44
2019-04-15 07:00:00 15.1 6 Norte 13 Norte 0 -- -- 36
2019-04-15 06:00:00 12.3 4 Sudeste 10 Oeste 0 -- -- 71
2019-04-15 05:00:00 15.2 4 Nordeste 13 Este 0 -- -- 50
2019-04-15 04:00:00 13.9 4 Norte 8 Norte 0 -- -- 53
2019-04-15 03:00:00 14.2 3 Nordeste 10 Este 0 -- -- 76
2019-04-15 02:00:00 15.3 6 Este 8 Este 0 -- -- 72
2019-04-15 01:00:00 12.9 4 Nordeste 12 Nordeste 0 -- -- 86
2019-04-15 00:00:00 13 2 Norte 8 Nordeste 0 -- -- 84
2019-04-14 23:00:00 14.1 0 Calma 7 Este 0 -- -- 73
2019-04-14 22:00:00 14.1 3 Noroeste 9 Oeste 0 -- -- 80
2019-04-14 21:00:00 15.4 6 Oeste 15 Oeste 0 -- -- 70
2019-04-14 20:00:00 18.1 9 Oeste 23 Oeste 0 -- -- 62
2019-04-14 19:00:00 21.5 13 Oeste 23 Oeste 0 -- -- 51
2019-04-14 18:00:00 22.3 11 Oeste 22 Oeste 0 -- -- 50
2019-04-14 17:00:00 22.5 12 Oeste 24 Sudeste 0 -- -- 55
2019-04-14 16:00:00 23.5 12 Oeste 22 Sudoeste 0 -- -- 53
2019-04-14 15:00:00 23 11 Sudoeste 24 Sudoeste 0 -- -- 53
2019-04-14 14:00:00 22.5 7 Oeste 19 Sur 0 -- -- 51
2019-04-14 13:00:00 22 6 Sudoeste 16 Sudoeste 0 -- -- 50
2019-04-14 12:00:00 20.9 7 Sudoeste 22 Sudoeste 0 -- -- 44
2019-04-14 11:00:00 19.1 3 Oeste 6 Oeste 0 -- -- 41
2019-04-14 10:00:00 17.4 3 Norte 8 Norte 0 -- -- 36
2019-04-14 09:00:00 14.5 3 Norte 12 Nordeste 0 -- -- 45
2019-04-14 08:00:00 14.3 2 Nordeste 8 Este 0 -- -- 45
2019-04-14 07:00:00 13 2 Este 8 Este 0 -- -- 59
2019-04-14 06:00:00 14.1 9 Nordeste 17 Este 0 -- -- 55
2019-04-14 05:00:00 14.6 2 Nordeste 12 Nordeste 0 -- -- 41
2019-04-14 04:00:00 13.2 3 Noroeste 6 Oeste 0 -- -- 67
2019-04-14 03:00:00 13.9 0 Calma 8 Nordeste 0 -- -- 65
2019-04-14 02:00:00 14.8 2 Sudeste 12 Este 0 -- -- 65
2019-04-14 01:00:00 15.3 6 Nordeste 9 Este 0 -- -- 61
2019-04-14 00:00:00 15.8 2 Sudeste 8 Nordeste 0 -- -- 59
2019-04-13 23:00:00 15.8 3 Nordeste 7 Norte 0 -- -- 64
2019-04-13 22:00:00 15.5 2 Sudoeste 8 Nordeste 0 -- -- 66
2019-04-13 21:00:00 16.4 3 Noroeste 10 Noroeste 0 -- -- 63
2019-04-13 20:00:00 18.8 7 Sur 17 Sudeste 0 -- -- 57
2019-04-13 19:00:00 21.9 8 Oeste 21 Oeste 0 -- -- 52
2019-04-13 18:00:00 21.8 10 Oeste 27 Oeste 0 -- -- 52
2019-04-13 17:00:00 22.5 12 Oeste 24 Oeste 0 -- -- 52
2019-04-13 16:00:00 21.5 13 Oeste 25 Noroeste 0 -- -- 55
2019-04-13 15:00:00 20.5 12 Oeste 26 Oeste 0 -- -- 55
2019-04-13 14:00:00 20.4 14 Sudoeste 24 Sudoeste 0 -- -- 56
2019-04-13 13:00:00 20.1 8 Oeste 16 Oeste 0 -- -- 54
2019-04-13 12:00:00 18.8 6 Oeste 13 Oeste 0 -- -- 53
2019-04-13 11:00:00 17 4 Noroeste 8 Noroeste 0 -- -- 52
2019-04-13 10:00:00 15.2 2 Sudeste 8 Sur 0 -- -- 49
2019-04-13 09:00:00 14.6 5 Este 7 Este 0 -- -- 33
2019-04-13 08:00:00 12.6 0 Calma 11 Nordeste 0 -- -- 47
2019-04-13 07:00:00 11.8 10 Este 16 Este 0 -- -- 58
2019-04-13 06:00:00 13 7 Este 11 Nordeste 0 -- -- 44
2019-04-13 05:00:00 12.6 3 Nordeste 6 Nordeste 0 -- -- 49
2019-04-13 04:00:00 12.3 4 Nordeste 5 Nordeste 0 -- -- 56
2019-04-13 03:00:00 12.9 0 Calma 9 Este 0 -- -- 58
2019-04-13 02:00:00 12.9 7 Este 12 Este 0 -- -- 61
2019-04-13 01:00:00 12.2 5 Norte 8 Nordeste 0 -- -- 69
2019-04-13 00:00:00 12.1 0 Calma 4 Este 0 -- -- 71
2019-04-12 23:00:00 12.2 0 Calma 8 Nordeste 0 -- -- 80
2019-04-12 22:00:00 12.9 3 Noroeste 11 Norte 0 -- -- 78
2019-04-12 21:00:00 13.8 5 Oeste 10 Oeste 0 -- -- 75
2019-04-12 20:00:00 15.6 6 Este 20 Sur 0 -- -- 68
2019-04-12 19:00:00 19.5 10 Sudoeste 21 Oeste 0 -- -- 59
2019-04-12 18:00:00 19.7 13 Oeste 30 Oeste 0 -- -- 57
2019-04-12 17:00:00 20.3 16 Oeste 30 Oeste 0 -- -- 55
2019-04-12 16:00:00 19.7 14 Oeste 24 Oeste 0 -- -- 58
2019-04-12 15:00:00 18.5 12 Sudoeste 23 Sur 0 -- -- 60
2019-04-12 14:00:00 17.6 7 Oeste 21 Oeste 0 -- -- 65
2019-04-12 13:00:00 17.7 9 Sudoeste 19 Oeste 0 -- -- 67
2019-04-12 12:00:00 16.5 6 Oeste 15 Oeste 0 -- -- 68
2019-04-12 11:00:00 13.7 2 Sudoeste 10 Sur 0 -- -- 77
2019-04-12 10:00:00 12.2 5 Sudeste 12 Este 0 -- -- 88
2019-04-12 09:00:00 10.2 5 Sur 9 Sur 0 -- -- 94
2019-04-12 08:00:00 10 0 Calma 10 Sudoeste 0 -- -- 93
2019-04-12 07:00:00 10 0 Calma 18 Este 0 -- -- 79
2019-04-12 06:00:00 9.9 8 Nordeste 12 Nordeste 0 -- -- 84
2019-04-12 05:00:00 10.2 5 Oeste 14 Oeste 0 -- -- 92
2019-04-12 04:00:00 10.3 0 Calma 17 Este 0 -- -- 88
2019-04-12 03:00:00 10.4 9 Nordeste 14 Nordeste 0 -- -- 91
2019-04-12 02:00:00 10.6 5 Noroeste 13 Oeste 0 -- -- 90
2019-04-12 01:00:00 11.1 8 Este 17 Este 0 -- -- 91
2019-04-12 00:00:00 11.5 4 Este 10 Nordeste 0 -- -- 89
2019-04-11 23:00:00 11.9 4 Sudeste 19 Oeste 0 -- -- 87
2019-04-11 22:00:00 12.5 7 Sudoeste 14 Noroeste 0 -- -- 85
2019-04-11 21:00:00 13.3 3 Este 12 Noroeste 0 -- -- 81
2019-04-11 20:00:00 16.1 6 Oeste 20 Oeste 0 -- -- 71
2019-04-11 19:00:00 18.3 11 Oeste 21 Oeste 0 -- -- 64
2019-04-11 18:00:00 18.3 9 Oeste 27 Oeste 0 -- -- 62
2019-04-11 17:00:00 19.5 16 Oeste 28 Oeste 0 -- -- 60
2019-04-11 16:00:00 17.8 11 Oeste 24 Oeste 0 -- -- 66
2019-04-11 15:00:00 16.8 9 Oeste 21 Oeste 0 -- -- 70
2019-04-11 14:00:00 17.3 9 Sudoeste 24 Sudoeste 0 -- -- 67
2019-04-11 13:00:00 16.9 9 Sudoeste 18 Sur 0 -- -- 70
2019-04-11 12:00:00 15.8 8 Oeste 15 Oeste 0 -- -- 72
2019-04-11 11:00:00 13.5 2 Oeste 7 Oeste 0 -- -- 76
2019-04-11 10:00:00 11.2 3 Sur 6 Sur 0 -- -- 91
2019-04-11 09:00:00 9.9 4 Sur 6 Sur 0 -- -- 93
2019-04-11 08:00:00 10 4 Noroeste 8 Noroeste 0 -- -- 92
2019-04-11 07:00:00 10.2 0 Calma 9 Sur 0 -- -- 92
2019-04-11 06:00:00 10.6 2 Oeste 6 Oeste 0 -- -- 91
2019-04-11 05:00:00 11 2 Oeste 6 Oeste 0 -- -- 91
2019-04-11 04:00:00 11.4 5 Oeste 8 Oeste 0 -- -- 90
2019-04-11 03:00:00 11.5 4 Oeste 6 Oeste 0 -- -- 89
2019-04-11 02:00:00 12 4 Oeste 9 Oeste 0 -- -- 88
2019-04-11 01:00:00 12.5 5 Oeste 10 Oeste 0 -- -- 88
2019-04-11 00:00:00 12.4 4 Sudoeste 9 Sur 0 -- -- 88
2019-04-10 23:00:00 12.6 6 Sudoeste 12 Oeste 0 -- -- 86
2019-04-10 22:00:00 13 5 Oeste 13 Oeste 0 -- -- 83
2019-04-10 21:00:00 13.8 6 Oeste 12 Oeste 0 -- -- 78
2019-04-10 20:00:00 15.8 8 Oeste 20 Oeste 0 -- -- 70
2019-04-10 19:00:00 18.7 12 Oeste 24 Oeste 0 -- -- 60
2019-04-10 18:00:00 19.3 10 Oeste 29 Oeste 0 -- -- 59
2019-04-10 17:00:00 18 11 Oeste 27 Oeste 0 -- -- 63
2019-04-10 16:00:00 16.7 9 Oeste 22 Noroeste 0 -- -- 66
2019-04-10 15:00:00 17.6 13 Oeste -- -- -- -- -- 64
2019-04-10 14:00:00 -- -- -- -- -- -- -- -- --
2019-04-10 13:00:00 -- -- -- -- -- -- -- -- --
2019-04-10 12:00:00 -- -- -- -- -- -- -- -- --
2019-04-10 11:00:00 13.9 5 Sudoeste 10 Sudoeste 0 -- -- 79
2019-04-10 10:00:00 11.5 3 Sudoeste 7 Sur 0 -- -- 89
2019-04-10 09:00:00 10.1 3 Sudoeste 9 Sudoeste 0 -- -- 91
2019-04-10 08:00:00 9.9 0 Calma 12 Oeste 0 -- -- 91
2019-04-10 07:00:00 10.4 8 Oeste 14 Oeste 0 -- -- 92
2019-04-10 06:00:00 11 9 Oeste 13 Oeste 0 -- -- 92
2019-04-10 05:00:00 11.2 4 Oeste 10 Noroeste 0 -- -- 92
2019-04-10 04:00:00 11.7 4 Oeste 12 Sudoeste 0 -- -- 93
2019-04-10 03:00:00 12 5 Oeste 11 Oeste 0 -- -- 93
2019-04-10 02:00:00 12 4 Sur 8 Sur 0 -- -- 93
2019-04-10 01:00:00 12.3 2 Oeste 9 Oeste 0 -- -- 92
2019-04-10 00:00:00 12.4 3 Noroeste 9 Sudoeste 0 -- -- 92
2019-04-09 23:00:00 12.6 3 Oeste 11 Sur 0 -- -- 92
2019-04-09 22:00:00 12.9 4 Sur 10 Sur 0 -- -- 92
2019-04-09 21:00:00 13.3 6 Sur 9 Sur 0 -- -- 89
2019-04-09 20:00:00 14.4 3 Sudoeste 13 Oeste 0 -- -- 82
2019-04-09 19:00:00 15 9 Oeste 14 Oeste 0 -- -- 79
2019-04-09 18:00:00 15.7 8 Oeste 19 Oeste 0 -- -- 75
2019-04-09 17:00:00 16.6 9 Oeste 24 Oeste 0 -- -- 72
2019-04-09 16:00:00 18.7 14 Oeste 28 Oeste 0 -- -- 63
2019-04-09 15:00:00 18.7 14 Oeste 29 Oeste 0 -- -- 62
2019-04-09 14:00:00 17.4 12 Oeste 26 Oeste 0 -- -- 65
2019-04-09 13:00:00 16.6 15 Sudoeste 27 Sudoeste 0 -- -- 69
2019-04-09 12:00:00 16.2 5 Oeste 12 Sudoeste 0 -- -- 65
2019-04-09 11:00:00 14.1 4 Oeste 10 Nordeste 0 -- -- 73
2019-04-09 10:00:00 11.7 0 Calma 4 Noroeste 0 -- -- 85
2019-04-09 09:00:00 10.3 0 Calma 4 Nordeste 0 -- -- 91
2019-04-09 08:00:00 10.1 2 Norte 5 Sudeste 0 -- -- 92
2019-04-09 07:00:00 10 3 Sudeste 4 Sudeste 0 -- -- 89
2019-04-09 06:00:00 10.1 0 Calma 4 Sudoeste 0 -- -- 90
2019-04-09 05:00:00 10.1 0 Calma 6 Norte 0 -- -- 91
2019-04-09 04:00:00 10.4 0 Calma 3 Nordeste 0 -- -- 90
2019-04-09 03:00:00 10.6 0 Calma 5 Este 0 -- -- 93
2019-04-09 02:00:00 10.9 2 Nordeste 5 Nordeste 0 -- -- 93
2019-04-09 01:00:00 11.1 0 Calma 5 Noroeste 0 -- -- 93
2019-04-09 00:00:00 11.6 0 Calma 8 Nordeste 0 -- -- 92
2019-04-08 23:00:00 11.8 4 Este 8 Sudeste 0 -- -- 87
2019-04-08 22:00:00 12.3 5 Sudeste 10 Sur 0 -- -- 91
2019-04-08 21:00:00 12.8 3 Sur 11 Oeste 0 -- -- 89
2019-04-08 20:00:00 13.5 6 Oeste 20 Sudoeste 0 -- -- 85
2019-04-08 19:00:00 14.3 10 Sudoeste 18 Sudoeste 0 -- -- 80
2019-04-08 18:00:00 14.9 9 Oeste 20 Oeste 0 -- -- 76
2019-04-08 17:00:00 15 9 Oeste 21 Sudoeste 0 -- -- 76
2019-04-08 16:00:00 15.3 10 Sudoeste 23 Sur 0 -- -- 75
2019-04-08 15:00:00 15.3 10 Sudoeste 26 Sudoeste 0 -- -- 74
2019-04-08 14:00:00 14.6 14 Sudoeste 22 Sur 0 -- -- 76
2019-04-08 13:00:00 16.3 9 Sudoeste 19 Sur 0 -- -- 69
2019-04-08 12:00:00 15.3 6 Sudoeste 17 Sudoeste 0 -- -- 70
2019-04-08 11:00:00 14.2 4 Sudoeste 7 Oeste 0 -- -- 69
2019-04-08 10:00:00 11.8 0 Calma 7 Sur 0 -- -- 80
2019-04-08 09:00:00 10.2 4 Norte 12 Norte 0 -- -- 84
2019-04-08 08:00:00 10.1 2 Nordeste 5 Nordeste 0 -- -- 86
2019-04-08 07:00:00 10.2 2 Oeste 5 Noroeste 0 -- -- 82
2019-04-08 06:00:00 10.3 3 Nordeste 6 Nordeste 0 -- -- 83
2019-04-08 05:00:00 10.5 2 Norte 7 Nordeste 0 -- -- 85
2019-04-08 04:00:00 10.4 0 Calma 6 Este 0 -- -- 87
2019-04-08 03:00:00 10.5 4 Sudeste 5 Sudeste 0 -- -- 81
2019-04-08 02:00:00 10.6 2 Nordeste 5 Norte 0 -- -- 83
2019-04-08 01:00:00 10.8 2 Sudoeste 5 Noroeste 0 -- -- 90
2019-04-08 00:00:00 10.9 4 Noroeste 7 Noroeste 0 -- -- 88
2019-04-07 23:00:00 11.4 0 Calma 4 Norte 0 -- -- 86
2019-04-07 22:00:00 12.1 3 Norte 8 Nordeste 0 -- -- 81
2019-04-07 21:00:00 12.9 4 Nordeste 14 Sur 0 -- -- 79
2019-04-07 20:00:00 13.6 8 Sur 18 Sur 0 -- -- 75
2019-04-07 19:00:00 14.8 10 Sur 22 Sur 0 -- -- 67
2019-04-07 18:00:00 16.2 11 Sudoeste 22 Sudoeste 0 -- -- 62
2019-04-07 17:00:00 16.2 14 Sudoeste 24 Oeste 0 -- -- 61
2019-04-07 16:00:00 15.9 10 Sudoeste 21 Sudoeste 0 -- -- 64
2019-04-07 15:00:00 16.6 11 Sudoeste 22 Sudoeste 0 -- -- 63
2019-04-07 14:00:00 15.7 10 Sur 20 Sudoeste 0 -- -- 65
2019-04-07 13:00:00 15.1 9 Sudoeste 19 Sudoeste 0 -- -- 66
2019-04-07 12:00:00 14.4 10 Sudoeste 15 Sudoeste 0 -- -- 71
2019-04-07 11:00:00 13.8 4 Oeste 7 Sudoeste 0 -- -- 69
2019-04-07 10:00:00 11.7 0 Calma 3 Nordeste 0 -- -- 73
2019-04-07 09:00:00 10 0 Calma 5 Noroeste 0 -- -- 80
2019-04-07 08:00:00 9.7 2 Oeste 5 Sudoeste 0 -- -- 81
2019-04-07 07:00:00 9.6 3 Noroeste 6 Oeste 0 -- -- 83
2019-04-07 06:00:00 10 2 Oeste 5 Oeste 0 -- -- 82
2019-04-07 05:00:00 10.1 2 Nordeste 8 Nordeste 0 -- -- 79
2019-04-07 04:00:00 9.8 6 Nordeste 11 Nordeste 0 -- -- 85
2019-04-07 03:00:00 10.1 4 Oeste 6 Noroeste 0 -- -- 85
2019-04-07 02:00:00 10.4 4 Oeste 8 Noroeste 0 -- -- 84
2019-04-07 01:00:00 10.7 0 Calma 8 Nordeste 0 -- -- 82
2019-04-07 00:00:00 10.9 7 Nordeste 10 Nordeste 0 -- -- 82
2019-04-06 23:00:00 11.5 3 Sudeste 10 Este 0 -- -- 78
2019-04-06 22:00:00 11.8 0 Calma 18 Oeste 0 -- -- 72
2019-04-06 21:00:00 12.6 10 Oeste 20 Oeste 0 -- -- 67
2019-04-06 20:00:00 14.2 9 Oeste 20 Oeste 0 -- -- 70
2019-04-06 19:00:00 16.6 12 Sudoeste 26 Sudoeste 0 -- -- 60
2019-04-06 18:00:00 15.6 10 Sudoeste 28 Sur 0 -- -- 62
2019-04-06 17:00:00 17 13 Sur 27 Sur 0 -- -- 55
2019-04-06 16:00:00 20 12 Oeste 33 Oeste 0 -- -- 44
2019-04-06 15:00:00 19.1 16 Oeste 36 Oeste 0 -- -- 45
2019-04-06 14:00:00 18.3 18 Noroeste 39 Norte 0 -- -- 46
2019-04-06 13:00:00 17.7 23 Noroeste 37 Noroeste 0 -- -- 48
2019-04-06 12:00:00 16.9 11 Noroeste 33 Norte 0 -- -- 54
2019-04-06 11:00:00 14.7 13 Norte 32 Nordeste 0 -- -- 53
2019-04-06 10:00:00 12.5 10 Noroeste 36 Noroeste 0 -- -- 61
2019-04-06 09:00:00 11.2 8 Norte 26 Norte 0 -- -- 67
2019-04-06 08:00:00 10.7 12 Nordeste 30 Nordeste 0 -- -- 69
2019-04-06 07:00:00 10.3 18 Nordeste 42 Norte 0 -- -- 62
2019-04-06 06:00:00 10.1 23 Norte 57 Noroeste 0 -- -- 62
2019-04-06 05:00:00 10.5 27 Noroeste 51 Noroeste 0 -- -- 65
2019-04-06 04:00:00 10.7 26 Noroeste 50 Nordeste 0 -- -- 69
2019-04-06 03:00:00 11 21 Norte 48 Norte 0 -- -- 72
2019-04-06 02:00:00 11.1 16 Noroeste 33 Noroeste 0 -- -- 67
2019-04-06 01:00:00 11.5 9 Nordeste 28 Noroeste 0 -- -- 70
2019-04-06 00:00:00 11.4 10 Nordeste 32 Sudoeste 0 -- -- 67
2019-04-05 23:00:00 11.8 7 Sudoeste 29 Nordeste 0 -- -- 66
2019-04-05 22:00:00 12.3 12 Noroeste 33 Nordeste 0 -- -- 63
2019-04-05 21:00:00 13.1 11 Oeste 44 Oeste 0 -- -- 62
2019-04-05 20:00:00 14.2 16 Oeste 38 Oeste 0 -- -- 59
2019-04-05 19:00:00 15.9 18 Noroeste 37 Noroeste 0 -- -- 53
2019-04-05 18:00:00 19.2 23 Norte 40 Noroeste 0 -- -- 48
2019-04-05 17:00:00 20.4 20 Oeste 38 Oeste 0 -- -- 39
2019-04-05 16:00:00 20.8 16 Noroeste 35 Oeste 0 -- -- 37
2019-04-05 15:00:00 19.7 15 Noroeste 35 Noroeste 0 -- -- 38
2019-04-05 14:00:00 19.6 20 Noroeste 32 Noroeste 0 -- -- 43
2019-04-05 13:00:00 17.5 11 Noroeste 24 Noroeste 0 -- -- 48
2019-04-05 12:00:00 16.1 17 Noroeste 31 Noroeste 0 -- -- 51
2019-04-05 11:00:00 14.5 16 Noroeste 32 Noroeste 0 -- -- 62
2019-04-05 10:00:00 12.5 17 Norte 32 Noroeste 0 -- -- 66
2019-04-05 09:00:00 10.7 12 Norte 24 Norte 0 -- -- 73
2019-04-05 08:00:00 10.6 10 Nordeste 31 Norte 0 -- -- 71
2019-04-05 07:00:00 10.7 13 Norte 40 Nordeste 0 -- -- 66
2019-04-05 06:00:00 10.3 18 Norte 35 Norte 0 -- -- 70
2019-04-05 05:00:00 10.5 17 Norte 42 Noroeste 0 -- -- 71
2019-04-05 04:00:00 10.4 6 Noroeste 30 Noroeste 0 -- -- 73
2019-04-05 03:00:00 10.8 15 Noroeste 34 Noroeste 0 -- -- 73
2019-04-05 02:00:00 10.6 9 Noroeste 32 Noroeste 0 -- -- 76
2019-04-05 01:00:00 11.1 11 Noroeste 41 Norte 0 -- -- 74
2019-04-05 00:00:00 11.3 19 Noroeste 36 Noroeste 0 -- -- 74
2019-04-04 23:00:00 11.7 22 Noroeste 42 Noroeste 0 -- -- 73
2019-04-04 22:00:00 12.1 17 Noroeste 43 Noroeste 0 -- -- 67
2019-04-04 21:00:00 12.9 4 Oeste 27 Noroeste 0 -- -- 64
2019-04-04 20:00:00 15.7 13 Noroeste 30 Noroeste 0 -- -- 53
2019-04-04 19:00:00 17.2 12 Noroeste 29 Noroeste 0 -- -- 53
2019-04-04 18:00:00 17.8 15 Noroeste 41 Oeste 0 -- -- 53
2019-04-04 17:00:00 16.8 12 Oeste 24 Oeste 0 -- -- 67
2019-04-04 16:00:00 16.2 10 Oeste 24 Oeste 0 -- -- 68
2019-04-04 15:00:00 16.9 14 Oeste 24 Oeste 0 -- -- 70
2019-04-04 14:00:00 13.8 5 Sudoeste 18 Noroeste 0 -- -- 83
2019-04-04 13:00:00 14.4 9 Oeste 18 Sudoeste 0 -- -- 79
2019-04-04 12:00:00 13.9 8 Oeste 14 Sudoeste 0 -- -- 82
2019-04-04 11:00:00 11.9 6 Sudoeste 12 Sur 0 -- -- 83
2019-04-04 10:00:00 11 4 Sur 6 Sur 0 -- -- 78
2019-04-04 09:00:00 10.2 3 Nordeste 8 Norte 0 -- -- 82
2019-04-04 08:00:00 9.7 3 Noroeste 11 Oeste 0 -- -- 91
2019-04-04 07:00:00 10.2 9 Oeste 20 Oeste 0 -- -- 92
2019-04-04 06:00:00 10.3 8 Oeste 12 Oeste 0 -- -- 92
2019-04-04 05:00:00 10.6 6 Oeste 12 Sudoeste 0 -- -- 92
2019-04-04 04:00:00 10.3 3 Oeste 14 Sudoeste 0 -- -- 86
2019-04-04 03:00:00 10.1 2 Oeste 22 Norte 0.4 -- -- 81
2019-04-04 02:00:00 11.3 3 Oeste 12 Oeste 0.8 -- -- 87
2019-04-04 01:00:00 11.4 6 Sudoeste 21 Oeste 0 -- -- 83
2019-04-04 00:00:00 11.7 3 Sudoeste 9 Oeste 0 -- -- 82
2019-04-03 23:00:00 12.3 5 Noroeste 14 Noroeste 0 -- -- 69
2019-04-03 22:00:00 12.6 3 Norte 20 Noroeste 0 -- -- 65
2019-04-03 21:00:00 13.4 4 Sur 10 Oeste 0 -- -- 77
2019-04-03 20:00:00 15.2 8 Oeste 19 Oeste 0 -- -- 69
2019-04-03 19:00:00 15.6 12 Oeste 32 Oeste 0 -- -- 72
2019-04-03 18:00:00 18.9 19 Oeste 33 Oeste 0 -- -- 53
2019-04-03 17:00:00 19.3 22 Oeste 41 Oeste 0 -- -- 50
2019-04-03 16:00:00 19.9 18 Oeste 39 Oeste 0 -- -- 47
2019-04-03 15:00:00 19.5 18 Oeste 38 Oeste 0 -- -- 48
2019-04-03 14:00:00 18 13 Oeste 33 Oeste 0 -- -- 53
2019-04-03 13:00:00 17.2 14 Oeste 36 Noroeste 0 -- -- 58
2019-04-03 12:00:00 15.4 14 Oeste 32 Oeste 0 -- -- 75
2019-04-03 11:00:00 13.6 3 Oeste 9 Oeste 0 -- -- 86
2019-04-03 10:00:00 12.5 3 Sudoeste 8 Sudoeste 0 -- -- 88
2019-04-03 09:00:00 11.2 0 Calma 6 Nordeste 0 -- -- 87
2019-04-03 08:00:00 11.2 2 Sudeste 6 Sudeste 0 -- -- 90
2019-04-03 07:00:00 11.3 4 Sudeste 6 Norte 0 -- -- 82
2019-04-03 06:00:00 11.1 2 Nordeste 6 Este 0 -- -- 91
2019-04-03 05:00:00 11 2 Este 5 Este 0 -- -- 92
2019-04-03 04:00:00 11.2 0 Calma 7 Este 0 -- -- 93
2019-04-03 03:00:00 11.6 3 Sudeste 9 Nordeste 0 -- -- 92
2019-04-03 02:00:00 12.1 0 Calma 4 Oeste 0 -- -- 92
2019-04-03 01:00:00 12.1 2 Oeste 6 Norte 0 -- -- 91
2019-04-03 00:00:00 12.2 5 Nordeste 12 Sudeste 0 -- -- 89
2019-04-02 23:00:00 12.9 4 Sudeste 9 Sur 0 -- -- 85
2019-04-02 22:00:00 13.4 5 Sur 13 Sur 0 -- -- 82
2019-04-02 21:00:00 14.2 10 Sur 14 Sur 0 -- -- 79
2019-04-02 20:00:00 15.8 6 Sudoeste 21 Oeste 0 -- -- 71
2019-04-02 19:00:00 19 10 Oeste 34 Oeste 0 -- -- 60
2019-04-02 18:00:00 20.4 16 Sudoeste 31 Oeste 0 -- -- 57
2019-04-02 17:00:00 20.4 16 Oeste 30 Oeste 0 -- -- 57
2019-04-02 16:00:00 20.1 15 Oeste 31 Oeste 0 -- -- 53
2019-04-02 15:00:00 20.1 15 Oeste 36 Oeste 0 -- -- 49
2019-04-02 14:00:00 19.7 11 Oeste 26 Sudoeste 0 -- -- 53
2019-04-02 13:00:00 18.1 12 Sudoeste 23 Sudoeste 0 -- -- 54
2019-04-02 12:00:00 15.7 10 Sur 19 Sur 0 -- -- 62
2019-04-02 11:00:00 14.9 7 Nordeste 13 Nordeste 0 -- -- 65
2019-04-02 10:00:00 13.2 6 Este 14 Este 0 -- -- 75
2019-04-02 09:00:00 10.8 6 Nordeste 15 Nordeste 0 -- -- 84
2019-04-02 08:00:00 10.6 5 Este 9 Este 0 -- -- 81
2019-04-02 07:00:00 10.3 4 Nordeste 6 Nordeste 0 -- -- 81
2019-04-02 06:00:00 10.8 3 Sudeste 9 Este 0 -- -- 77
2019-04-02 05:00:00 11.4 4 Nordeste 13 Este 0 -- -- 74
2019-04-02 04:00:00 11.1 6 Nordeste 14 Nordeste 0 -- -- 76
2019-04-02 03:00:00 11.1 11 Nordeste 16 Nordeste 0 -- -- 76
2019-04-02 02:00:00 11.3 6 Nordeste 15 Nordeste 0 -- -- 76
2019-04-02 01:00:00 11.1 12 Nordeste 14 Nordeste 0 -- -- 79
2019-04-02 00:00:00 11.3 4 Nordeste 7 Este 0 -- -- 83
2019-04-01 23:00:00 11.3 3 Sudeste 5 Sudeste 0 -- -- 87
2019-04-01 22:00:00 11.3 0 Calma 6 Nordeste 0 -- -- 88
2019-04-01 21:00:00 11.5 3 Nordeste 6 Este 0 -- -- 88
2019-04-01 20:00:00 12.3 3 Nordeste 7 Este 0 -- -- 85
2019-04-01 19:00:00 12.4 5 Sur 12 Sudeste 0 -- -- 88
2019-04-01 18:00:00 12.6 10 Sur 16 Sur 0 -- -- 87
2019-04-01 17:00:00 13.1 5 Sur 15 Sur 0 -- -- 86
2019-04-01 16:00:00 12.9 8 Sur 18 Sur 0 -- -- 87
2019-04-01 15:00:00 13.7 8 Sudoeste 17 Sur 0 -- -- 82
2019-04-01 14:00:00 14.1 6 Sudoeste 22 Sudoeste 0 -- -- 79
2019-04-01 13:00:00 14.6 11 Sudoeste 21 Sur 0 -- -- 75
2019-04-01 12:00:00 14.9 10 Sudoeste 18 Sudoeste 0 -- -- 74
2019-04-01 11:00:00 14.5 3 Noroeste 10 Sudeste 0 -- -- 71
2019-04-01 10:00:00 12.5 5 Este 10 Este 0 -- -- 79
2019-04-01 09:00:00 11.1 8 Este 12 Este 0 -- -- 81
2019-04-01 08:00:00 10.6 10 Este 12 Este 0 -- -- 80
2019-04-01 07:00:00 10.9 6 Este 10 Norte 0 -- -- 78
2019-04-01 06:00:00 10.7 0 Calma 9 Noroeste 0 -- -- 81
2019-04-01 05:00:00 10.4 0 Calma 6 Oeste 0 -- -- 82
2019-04-01 04:00:00 10.7 3 Norte 7 Noroeste 0 -- -- 81
2019-04-01 03:00:00 10.7 2 Oeste 8 Norte 0 -- -- 81
2019-04-01 02:00:00 10.8 3 Noroeste 9 Noroeste 0 -- -- 86
2019-04-01 01:00:00 11.4 4 Oeste 6 Oeste 0 -- -- 86
2019-04-01 00:00:00 11.5 3 Nordeste 4 Nordeste 0 -- -- 91
2019-03-31 23:00:00 11.8 0 Calma 8 Este 0 -- -- 92
2019-03-31 22:00:00 12.4 2 Oeste 13 Sur 0 -- -- 92
2019-03-31 21:00:00 12.8 3 Sur 8 Oeste 0 -- -- 92
2019-03-31 20:00:00 13.2 5 Oeste 13 Sur 0 -- -- 91
2019-03-31 19:00:00 13.4 7 Sudoeste 17 Oeste 0 -- -- 89
2019-03-31 18:00:00 13.7 11 Oeste 23 Sudoeste 0 -- -- 85
2019-03-31 17:00:00 14.3 12 Sudoeste 21 Oeste 0 -- -- 81
2019-03-31 16:00:00 14.3 11 Oeste 22 Oeste 0 -- -- 79
2019-03-31 15:00:00 15.5 11 Oeste 22 Sudoeste 0 -- -- 68
2019-03-31 14:00:00 15.1 8 Sudoeste 21 Sudoeste 0 -- -- 71
2019-03-31 13:00:00 14.7 10 Sudoeste 21 Sudoeste 0 -- -- 75
2019-03-31 12:00:00 14.4 4 Oeste 14 Sudoeste 0 -- -- 72
2019-03-31 11:00:00 13.5 3 Noroeste 12 Sudoeste 0 -- -- 75
2019-03-31 10:00:00 11.5 8 Este 14 Este 0 -- -- 77
2019-03-31 09:00:00 10.3 0 Calma 8 Nordeste 0 -- -- 63
2019-03-31 08:00:00 9.8 3 Sudeste 8 Sudeste 0 -- -- 70
2019-03-31 07:00:00 10.2 2 Sudeste 14 Este 0 -- -- 66
2019-03-31 06:00:00 10.5 8 Nordeste 21 Norte 0 -- -- 57
2019-03-31 05:00:00 9.1 8 Norte 20 Noroeste 0 -- -- 73
2019-03-31 04:00:00 9.1 3 Norte 8 Noroeste 0 -- -- 91
2019-03-31 00:00:00 10.2 2 Noroeste 6 Este 0 -- -- 76
2019-03-30 23:00:00 9.9 3 Sudeste 7 Norte 0 -- -- 91
2019-03-30 22:00:00 10 6 Nordeste 7 Nordeste 0 -- -- 92
2019-03-30 21:00:00 10.5 2 Nordeste 6 Sur 0 -- -- 92
2019-03-30 20:00:00 10.9 2 Sur 6 Oeste 0 -- -- 89
2019-03-30 19:00:00 11.9 3 Oeste 11 Sudoeste 0 -- -- 85
2019-03-30 18:00:00 12.1 7 Oeste 18 Oeste 0 -- -- 85
2019-03-30 17:00:00 12.6 9 Oeste 18 Oeste 0 -- -- 80
2019-03-30 16:00:00 12.3 6 Sudoeste 12 Sur 0.2 -- -- 81
2019-03-30 15:00:00 12.6 5 Sudoeste 15 Sur 0 -- -- 80
2019-03-30 14:00:00 13.5 7 Sudoeste 22 Oeste 0 -- -- 76
2019-03-30 13:00:00 14.8 9 Sudoeste 18 Oeste 0 -- -- 71
2019-03-30 12:00:00 15.8 9 Oeste 20 Sudoeste 0 -- -- 67
2019-03-30 11:00:00 14.1 5 Sudoeste 13 Oeste 0 -- -- 70
2019-03-30 10:00:00 12.8 6 Oeste 10 Sudoeste 0 -- -- 76
2019-03-30 09:00:00 11.5 0 Calma 10 Nordeste 0 -- -- 80
2019-03-30 08:00:00 10.1 9 Nordeste 10 Nordeste 0 -- -- 85
2019-03-30 07:00:00 9.9 0 Calma 9 Nordeste 0 -- -- 85
2019-03-30 06:00:00 9.8 5 Nordeste 9 Nordeste 0 -- -- 79
2019-03-30 05:00:00 9.8 3 Nordeste 9 Nordeste 0 -- -- 88
2019-03-30 04:00:00 9.7 7 Nordeste 9 Este 0 -- -- 90
2019-03-30 03:00:00 9.8 3 Nordeste 5 Este 0 -- -- 91
2019-03-30 02:00:00 10.2 5 Nordeste 11 Este 0 -- -- 92
2019-03-30 01:00:00 10.4 8 Este 12 Este 0 -- -- 91
2019-03-30 00:00:00 10.9 0 Calma 7 Este 0 -- -- 88
2019-03-29 23:00:00 11.2 10 Este 13 Este 0 -- -- 78
2019-03-29 22:00:00 11.3 4 Nordeste 19 Noroeste 0 -- -- 77
2019-03-29 21:00:00 12.1 5 Noroeste 13 Noroeste 0 -- -- 81
2019-03-29 20:00:00 13 7 Oeste 22 Oeste 0 -- -- 79
2019-03-29 19:00:00 14.7 10 Oeste 22 Oeste 0 -- -- 72
2019-03-29 18:00:00 15.2 14 Oeste 30 Oeste 0 -- -- 74
2019-03-29 17:00:00 17.7 17 Oeste 32 Oeste 0 -- -- 69
2019-03-29 16:00:00 17.3 17 Oeste 32 Oeste 0 -- -- 67
2019-03-29 15:00:00 16.8 13 Oeste 30 Oeste 0 -- -- 67
2019-03-29 14:00:00 16 13 Oeste 27 Sudoeste 0 -- -- 74
2019-03-29 13:00:00 15.6 10 Oeste 27 Oeste 0 -- -- 78
2019-03-29 12:00:00 14.5 7 Oeste 21 Sur 0 -- -- 80
2019-03-29 11:00:00 14.2 10 Sudoeste 14 Sudoeste 0 -- -- 81
2019-03-29 10:00:00 13.2 3 Oeste 5 Sudoeste 0 -- -- 77
2019-03-29 09:00:00 11.2 0 Calma 4 Nordeste 0 -- -- 83
2019-03-29 08:00:00 10.3 2 Nordeste 6 Sudeste 0 -- -- 91
2019-03-29 07:00:00 10.5 3 Sur 8 Nordeste 0 -- -- 87
2019-03-29 06:00:00 9.8 3 Sudeste 5 Sudeste 0 -- -- 83
2019-03-29 05:00:00 10.2 0 Calma 9 Nordeste 0 -- -- 91
2019-03-29 04:00:00 10.4 0 Calma 6 Sur 0 -- -- 92
2019-03-29 03:00:00 10.7 4 Sur 7 Sudeste 0 -- -- 83
2019-03-29 02:00:00 11.6 3 Nordeste 6 Nordeste 0 -- -- 68
2019-03-29 01:00:00 11 0 Calma 4 Norte 0.2 -- -- 89
2019-03-29 00:00:00 11.2 0 Calma 4 Este 0 -- -- 95
2019-03-28 23:00:00 11.6 0 Calma 3 Nordeste 0 -- -- 93
2019-03-28 22:00:00 11.7 0 Calma 13 Nordeste 0 -- -- 92
2019-03-28 21:00:00 11.8 10 Nordeste 14 Nordeste 0.2 -- -- 93
2019-03-28 20:00:00 11.9 4 Este 7 Sudeste 0.4 -- -- 95
2019-03-28 19:00:00 12 6 Sur 14 Sur 1.4 -- -- 95
2019-03-28 18:00:00 12.2 5 Sur 21 Sur 1 -- -- 94
2019-03-28 17:00:00 12.7 8 Sudoeste 17 Sur 0.6 -- -- 94
2019-03-28 16:00:00 13.2 9 Sur 20 Sur 1.2 -- -- 89
2019-03-28 15:00:00 14.6 14 Sudoeste 25 Sudoeste 0 -- -- 86
2019-03-28 14:00:00 14.8 14 Sudoeste 21 Sudoeste 0 -- -- 87
2019-03-28 13:00:00 15.3 12 Sudoeste 21 Sudoeste 0 -- -- 83
2019-03-28 12:00:00 14.6 6 Sudoeste 15 Sudoeste 0 -- -- 86
2019-03-28 11:00:00 14.2 7 Sudoeste 14 Sur 0 -- -- 84
2019-03-28 10:00:00 12.3 3 Sudoeste 6 Sudoeste 0 -- -- 89
2019-03-28 09:00:00 11.3 4 Sur 6 Sur 0 -- -- 92
2019-03-28 08:00:00 10.5 0 Calma 4 Este 0 -- -- 92
2019-03-28 07:00:00 10.3 0 Calma 9 Nordeste 0 -- -- 93
2019-03-28 06:00:00 10.5 6 Nordeste 13 Nordeste 0 -- -- 93
2019-03-28 05:00:00 10.8 8 Sudeste 10 Sudeste 0 -- -- 87
2019-03-28 04:00:00 10.6 0 Calma 11 Nordeste 0 -- -- 89
2019-03-28 03:00:00 10.8 5 Nordeste 10 Nordeste 0 -- -- 92
2019-03-28 02:00:00 10.7 6 Nordeste 8 Nordeste 0 -- -- 92
2019-03-28 01:00:00 10.8 7 Nordeste 10 Nordeste 0 -- -- 94
2019-03-28 00:00:00 11.4 3 Este 7 Este 0 -- -- 95
2019-03-27 23:00:00 12 2 Nordeste 5 Nordeste 0 -- -- 95
2019-03-27 22:00:00 12.3 0 Calma 10 Oeste 0 -- -- 95
2019-03-27 21:00:00 12.6 2 Oeste 11 Sudoeste 0 -- -- 95
2019-03-27 20:00:00 12.8 5 Sudoeste 12 Oeste 0 -- -- 95
2019-03-27 19:00:00 12.9 6 Sudoeste 14 Sur 0 -- -- 94
2019-03-27 18:00:00 13.3 8 Sudoeste 15 Sur 2.2 -- -- 93
2019-03-27 17:00:00 14.4 12 Sudoeste 26 Sudoeste 0.4 -- -- 88
2019-03-27 16:00:00 17.2 10 Sudoeste 21 Noroeste 0 -- -- 74
2019-03-27 15:00:00 15.1 10 Sudoeste 19 Sudoeste 0 -- -- 81
2019-03-27 14:00:00 14.9 10 Sudoeste 20 Sur 0 -- -- 84
2019-03-27 13:00:00 13.8 11 Sur 21 Sur 0 -- -- 87
2019-03-27 12:00:00 13.9 10 Sur 19 Sur 0.2 -- -- 89
2019-03-27 11:00:00 15 6 Sudoeste 14 Sudoeste 0 -- -- 82
2019-03-27 10:00:00 14.1 5 Sudoeste 11 Este 0 -- -- 79
2019-03-27 09:00:00 11.6 0 Calma 11 Este 0 -- -- 90
2019-03-27 08:00:00 11.1 9 Este 12 Este 0 -- -- 84
2019-03-27 07:00:00 10.6 3 Este 10 Este 0 -- -- 83
2019-03-27 06:00:00 10.8 0 Calma 13 Norte 0 -- -- 80
2019-03-27 05:00:00 10.5 2 Noroeste 12 Nordeste 0 -- -- 88
2019-03-27 04:00:00 10.3 2 Norte 8 Nordeste 0 -- -- 91
2019-03-27 03:00:00 10.5 0 Calma 6 Nordeste 0 -- -- 85
2019-03-27 02:00:00 10.6 3 Norte 12 Norte 0 -- -- 82
2019-03-27 01:00:00 10.5 7 Noroeste 15 Norte 0 -- -- 83
2019-03-27 00:00:00 10.7 10 Noroeste 15 Nordeste 0 -- -- 78
2019-03-26 23:00:00 11.1 3 Norte 24 Noroeste 0 -- -- 81
2019-03-26 22:00:00 11.5 4 Noroeste 12 Noroeste 0 -- -- 86
2019-03-26 21:00:00 11.7 5 Sudeste 12 Norte 0 -- -- 89
2019-03-26 20:00:00 12.2 5 Nordeste 13 Norte 0 -- -- 83
2019-03-26 19:00:00 14.2 5 Noroeste 20 Oeste 0 -- -- 87
2019-03-26 18:00:00 13.5 11 Oeste 26 Oeste 0 -- -- 92
2019-03-26 17:00:00 12.7 9 Sudoeste 17 Sudoeste 1 -- -- 89
2019-03-26 16:00:00 14.2 7 Sudoeste 14 Oeste 0 -- -- 82
2019-03-26 15:00:00 12.7 4 Nordeste 15 Sur 0.2 -- -- 90
2019-03-26 14:00:00 12.7 10 Sur 21 Sur 0 -- -- 87
2019-03-26 13:00:00 14.6 5 Oeste 15 Oeste 0 -- -- 81
2019-03-26 12:00:00 13.2 8 Oeste 13 Oeste 0 -- -- 85
2019-03-26 11:00:00 13.1 7 Oeste 12 Oeste 0 -- -- 83
2019-03-26 10:00:00 12.9 4 Oeste 12 Sudoeste 0 -- -- 84
2019-03-26 09:00:00 10.5 4 Sur 12 Sur 0 -- -- 86
2019-03-26 08:00:00 9.5 2 Sudeste 7 Sudeste 0 -- -- 91
2019-03-26 07:00:00 9.5 3 Nordeste 9 Este 0 -- -- 83
2019-03-26 06:00:00 9.9 3 Sudoeste 6 Sudoeste 0 -- -- 80
2019-03-26 05:00:00 9.8 0 Calma 12 Nordeste 0 -- -- 81
2019-03-26 04:00:00 9.5 2 Nordeste 6 Oeste 0 -- -- 86
2019-03-26 03:00:00 9.3 4 Noroeste 8 Oeste 0 -- -- 89
2019-03-26 02:00:00 9.8 0 Calma 5 Norte 0 -- -- 87
2019-03-26 01:00:00 9.8 0 Calma 7 Nordeste 0 -- -- 87
2019-03-26 00:00:00 9.8 3 Norte 5 Nordeste 0 -- -- 90
2019-03-25 23:00:00 10.2 0 Calma 12 Este 0 -- -- 89
2019-03-25 22:00:00 10.5 0 Calma 12 Este 0.2 -- -- 90
2019-03-25 21:00:00 10.9 0 Calma 11 Nordeste 0 -- -- 91
2019-03-25 20:00:00 10.9 3 Oeste 9 Sur 0 -- -- 91
2019-03-25 19:00:00 11.2 2 Este 11 Este 0 -- -- 90
2019-03-25 18:00:00 11.7 4 Sudeste 19 Sur 0 -- -- 89
2019-03-25 17:00:00 12.1 12 Sur 20 Sur 0 -- -- 88
2019-03-25 16:00:00 12.8 13 Sur 35 Nordeste 2 -- -- 83
2019-03-25 15:00:00 10.4 3 Sudoeste 14 Sur 3.8 -- -- 90
2019-03-25 14:00:00 11.3 8 Sudoeste 17 Sur 3 -- -- 91
2019-03-25 13:00:00 12.5 6 Sur 13 Sur 0 -- -- 79
2019-03-25 12:00:00 12.2 3 Noroeste 17 Oeste 0.2 -- -- 80
2019-03-25 11:00:00 13.4 5 Noroeste 15 Oeste 0 -- -- 71
2019-03-25 10:00:00 12.4 3 Noroeste 9 Oeste 0 -- -- 74
2019-03-25 09:00:00 11.2 4 Norte 10 Norte 0 -- -- 77
2019-03-25 08:00:00 10.3 2 Sudoeste 9 Sudoeste 0 -- -- 77
2019-03-25 07:00:00 10.2 3 Sur 7 Este 0 -- -- 76
2019-03-25 06:00:00 10 3 Nordeste 5 Nordeste 0 -- -- 77
2019-03-25 05:00:00 10.1 0 Calma 5 Sudoeste 0 -- -- 76
2019-03-25 04:00:00 10.3 0 Calma 4 Oeste 0 -- -- 76
2019-03-25 03:00:00 10.4 4 Sudoeste 9 Sudoeste 0 -- -- 75
2019-03-25 02:00:00 9.8 0 Calma 6 Nordeste 0 -- -- 84
2019-03-25 01:00:00 10.1 0 Calma 6 Nordeste 0 -- -- 89
2019-03-25 00:00:00 10.3 0 Calma 5 Sudoeste 0 -- -- 89
2019-03-24 23:00:00 10.9 0 Calma 10 Oeste 0 -- -- 86
2019-03-24 22:00:00 11.6 4 Sudoeste 14 Oeste 0 -- -- 85
2019-03-24 21:00:00 12.1 7 Oeste 15 Noroeste 0 -- -- 83
2019-03-24 20:00:00 12.7 6 Oeste 20 Oeste 0 -- -- 72
2019-03-24 19:00:00 15.5 6 Oeste 25 Oeste 0 -- -- 60
2019-03-24 18:00:00 17.1 14 Oeste 27 Oeste 0 -- -- 54
2019-03-24 17:00:00 17.1 10 Oeste 25 Sudoeste 0 -- -- 62
2019-03-24 16:00:00 17.5 11 Oeste 27 Oeste 0 -- -- 62
2019-03-24 15:00:00 19.2 13 Sudoeste 23 Sudoeste 0 -- -- 55
2019-03-24 14:00:00 19.8 12 Oeste 25 Oeste 0 -- -- 52
2019-03-24 13:00:00 18.9 13 Sudoeste 27 Sudoeste 0 -- -- 55
2019-03-24 12:00:00 17.8 12 Oeste 22 Sudoeste 0 -- -- 60
2019-03-24 11:00:00 15.3 5 Oeste 14 Sudoeste 0 -- -- 65
2019-03-24 10:00:00 13.8 3 Oeste 9 Sudoeste 0 -- -- 71
2019-03-24 09:00:00 11.8 3 Sudoeste 11 Oeste 0 -- -- 81
2019-03-24 08:00:00 10.6 4 Oeste 7 Sudoeste 0 -- -- 84
2019-03-24 07:00:00 9.9 5 Sudoeste 13 Noroeste 0 -- -- 87
2019-03-24 06:00:00 9.7 9 Oeste 16 Oeste 0 -- -- 90
2019-03-24 05:00:00 9.9 5 Noroeste 8 Oeste 0 -- -- 90
2019-03-24 04:00:00 10.3 2 Sudoeste 6 Sudoeste 0 -- -- 89
2019-03-24 03:00:00 10.8 5 Oeste 9 Oeste 0 -- -- 87
2019-03-24 02:00:00 10.9 4 Oeste 8 Oeste 0 -- -- 86
2019-03-24 01:00:00 11.8 4 Sudoeste 12 Este 0 -- -- 78
2019-03-24 00:00:00 12.7 4 Este 10 Este 0 -- -- 71
2019-03-23 23:00:00 14.2 9 Este 12 Este 0 -- -- 61
2019-03-23 22:00:00 14.9 4 Nordeste 6 Nordeste 0 -- -- 53
2019-03-23 21:00:00 15.6 3 Sudoeste 8 Sur 0 -- -- 52
2019-03-23 20:00:00 15.9 4 Sudeste 12 Nordeste 0 -- -- 53
2019-03-23 19:00:00 18.4 5 Oeste 18 Oeste 0 -- -- 43
2019-03-23 18:00:00 19.5 10 Oeste 20 Sudoeste 0 -- -- 54
2019-03-23 17:00:00 20.6 13 Oeste 30 Oeste 0 -- -- 54
2019-03-23 16:00:00 21.2 17 Oeste 32 Oeste 0 -- -- 51
2019-03-23 15:00:00 21.3 15 Oeste 29 Oeste 0 -- -- 51
2019-03-23 14:00:00 21.5 16 Sudoeste 26 Sudoeste 0 -- -- 51
2019-03-23 13:00:00 21.4 9 Oeste 17 Oeste 0 -- -- 49
2019-03-23 12:00:00 20.6 8 Oeste 22 Sudoeste 0 -- -- 56
2019-03-23 11:00:00 19.3 6 Sudoeste 13 Sur 0 -- -- 60
2019-03-23 10:00:00 19.1 5 Norte 8 Norte 0 -- -- 42
2019-03-23 09:00:00 15.4 0 Calma 8 Sur 0 -- -- 44
2019-03-23 08:00:00 15.6 3 Noroeste 14 Sur 0 -- -- 42
2019-03-23 07:00:00 15.3 3 Norte 7 Nordeste 0 -- -- 37
2019-03-23 06:00:00 13.6 4 Nordeste 7 Norte 0 -- -- 65
2019-03-23 05:00:00 16.9 4 Sudeste 13 Nordeste 0 -- -- 35
2019-03-23 04:00:00 18.2 13 Nordeste 26 Norte 0 -- -- 31
2019-03-23 03:00:00 17.2 17 Nordeste 28 Norte 0 -- -- 34
2019-03-23 02:00:00 14 3 Este 18 Sur 0 -- -- 62
2019-03-23 01:00:00 13.6 5 Noroeste 26 Sur 0 -- -- 66
2019-03-23 00:00:00 13.3 12 Sudeste 33 Sur 0 -- -- 85
2019-03-22 23:00:00 19.2 5 Nordeste 7 Nordeste 0 -- -- 32
2019-03-22 22:00:00 19.3 3 Sudeste 6 Nordeste 0 -- -- 35
2019-03-22 21:00:00 19.2 4 Este 18 Nordeste 0 -- -- 51
2019-03-22 20:00:00 18.9 2 Sudeste 9 Noroeste 0 -- -- 56
2019-03-22 19:00:00 20.8 3 Noroeste 9 Oeste 0 -- -- 52
2019-03-22 18:00:00 22.5 8 Oeste 17 Oeste 0 -- -- 49
2019-03-22 17:00:00 23.7 9 Oeste 17 Oeste 0 -- -- 45
2019-03-22 16:00:00 23.9 8 Oeste 19 Oeste 0 -- -- 45
2019-03-22 15:00:00 22.9 9 Sudoeste 26 Sur 0 -- -- 49
2019-03-22 14:00:00 23.1 5 Nordeste 27 Sur 0 -- -- 37
2019-03-22 13:00:00 21.1 10 Sudoeste 22 Oeste 0 -- -- 55
2019-03-22 12:00:00 17 5 Oeste 13 Sudoeste 0 -- -- 70
2019-03-22 11:00:00 16 8 Sudoeste 13 Sur 0 -- -- 70
2019-03-22 10:00:00 16.2 3 Sudoeste 8 Sudoeste 0 -- -- 66
2019-03-22 09:00:00 16 2 Norte 4 Norte 0 -- -- 34
2019-03-22 08:00:00 13.7 3 Sudeste 7 Este 0 -- -- 60
2019-03-22 07:00:00 14.8 4 Este 12 Este 0 -- -- 40
2019-03-22 06:00:00 14.9 4 Nordeste 26 Sur 0 -- -- 44
2019-03-22 05:00:00 18.6 2 Este 8 Nordeste 0 -- -- 20
2019-03-22 04:00:00 17 7 Nordeste 11 Este 0 -- -- 31
2019-03-22 03:00:00 17.3 5 Sudoeste 13 Nordeste 0 -- -- 37
2019-03-22 02:00:00 16.5 4 Sudoeste 8 Oeste 0 -- -- 42
2019-03-22 01:00:00 16.6 0 Calma 10 Este 0 -- -- 51
2019-03-22 00:00:00 15.9 5 Nordeste 12 Este 0 -- -- 60
2019-03-21 23:00:00 16.4 0 Calma 5 Nordeste 0 -- -- 59
2019-03-21 22:00:00 15.4 0 Calma 5 Nordeste 0 -- -- 70
2019-03-21 21:00:00 15.6 3 Norte 13 Este 0 -- -- 70
2019-03-21 20:00:00 16.6 3 Noroeste 9 Sur 0 -- -- 66
2019-03-21 19:00:00 18.4 4 Norte 15 Oeste 0 -- -- 60
2019-03-21 18:00:00 19.3 8 Oeste 21 Oeste 0 -- -- 58
2019-03-21 17:00:00 20.9 13 Sudoeste 24 Sudoeste 0 -- -- 54
2019-03-21 16:00:00 22.1 10 Oeste 23 Oeste 0 -- -- 52
2019-03-21 15:00:00 23.2 12 Oeste 22 Oeste 0 -- -- 48
2019-03-21 14:00:00 21.3 8 Oeste 19 Sudoeste 0 -- -- 54
2019-03-21 13:00:00 21.7 5 Noroeste 19 Sudoeste 0 -- -- 53
2019-03-21 12:00:00 21.1 5 Oeste 13 Oeste 0 -- -- 51
2019-03-21 11:00:00 19.4 4 Oeste 7 Oeste 0 -- -- 48
2019-03-21 10:00:00 17.5 2 Sudoeste 11 Sudoeste 0 -- -- 55
2019-03-21 09:00:00 14.9 3 Sur 9 Oeste 0 -- -- 37
2019-03-21 08:00:00 14.5 2 Sur 9 Este 0 -- -- 40
2019-03-21 07:00:00 15.5 2 Sudeste 8 Nordeste 0 -- -- 37
2019-03-21 06:00:00 15.1 4 Nordeste 8 Nordeste 0 -- -- 44
2019-03-21 05:00:00 15.3 4 Este 8 Nordeste 0 -- -- 47
2019-03-21 04:00:00 15.6 2 Este 4 Sudeste 0 -- -- 48
2019-03-21 03:00:00 15.7 3 Nordeste 6 Nordeste 0 -- -- 49
2019-03-21 02:00:00 15.8 2 Nordeste 6 Nordeste 0 -- -- 56
2019-03-21 01:00:00 15.5 2 Nordeste 5 Nordeste 0 -- -- 56
2019-03-21 00:00:00 15.2 2 Norte 6 Nordeste 0 -- -- 57
2019-03-20 23:00:00 14.6 4 Nordeste 8 Nordeste 0 -- -- 64
2019-03-20 22:00:00 15 8 Este 12 Este 0 -- -- 69
2019-03-20 21:00:00 15.2 0 Calma 5 Nordeste 0 -- -- 67
2019-03-20 20:00:00 15.7 0 Calma 7 Noroeste 0 -- -- 68
2019-03-20 19:00:00 18.7 4 Noroeste 17 Oeste 0 -- -- 60
2019-03-20 18:00:00 20.2 10 Oeste 21 Oeste 0 -- -- 55
2019-03-20 17:00:00 20.8 9 Oeste 18 Oeste 0 -- -- 52
2019-03-20 16:00:00 20.6 8 Oeste 21 Oeste 0 -- -- 52
2019-03-20 15:00:00 20.5 10 Oeste 22 Oeste 0 -- -- 54
2019-03-20 14:00:00 20.3 9 Oeste 23 Sudoeste 0 -- -- 55
2019-03-20 13:00:00 19.1 10 Oeste 18 Sur 0 -- -- 59
2019-03-20 12:00:00 18.3 9 Sudoeste 23 Sur 0 -- -- 62
2019-03-20 11:00:00 17.2 3 Oeste 21 Sudeste 0 -- -- 61
2019-03-20 10:00:00 16 2 Noroeste 7 Sudoeste 0 -- -- 49
2019-03-20 09:00:00 13.8 0 Calma 4 Sur 0 -- -- 38
2019-03-20 08:00:00 13.1 0 Calma 4 Este 0 -- -- 43
2019-03-20 07:00:00 13.1 0 Calma 5 Nordeste 0 -- -- 44
2019-03-20 06:00:00 11.8 3 Nordeste 5 Nordeste 0 -- -- 59
2019-03-20 05:00:00 12.5 0 Calma 5 Sur 0 -- -- 58
2019-03-20 04:00:00 11.8 3 Nordeste 10 Este 0 -- -- 66
2019-03-20 03:00:00 11.4 4 Nordeste 8 Sudeste 0 -- -- 72
2019-03-20 02:00:00 11.3 0 Calma 6 Norte 0 -- -- 86
2019-03-20 01:00:00 10.8 0 Calma 6 Nordeste 0 -- -- 90
2019-03-20 00:00:00 11 0 Calma 8 Este 0 -- -- 88
2019-03-19 23:00:00 11.4 2 Norte 10 Este 0 -- -- 89
2019-03-19 22:00:00 12 0 Calma 9 Este 0 -- -- 84
2019-03-19 21:00:00 12.6 0 Calma 9 Oeste 0 -- -- 83
2019-03-19 20:00:00 14.4 3 Noroeste 8 Noroeste 0 -- -- 72
2019-03-19 19:00:00 16.6 6 Oeste 18 Sudoeste 0 -- -- 64
2019-03-19 18:00:00 18.2 12 Sudoeste 22 Sur 0 -- -- 60
2019-03-19 17:00:00 19 11 Sudoeste 22 Noroeste 0 -- -- 57
2019-03-19 16:00:00 20.9 12 Oeste 27 Oeste 0 -- -- 50
2019-03-19 15:00:00 21.3 14 Oeste 22 Oeste 0 -- -- 48
2019-03-19 14:00:00 20.5 10 Oeste 19 Oeste 0 -- -- 52
2019-03-19 13:00:00 19.1 8 Oeste 20 Oeste 0 -- -- 59
2019-03-19 12:00:00 18.2 6 Oeste 18 Oeste 0 -- -- 64
2019-03-19 11:00:00 15.8 5 Oeste 10 Norte 0 -- -- 66
2019-03-19 10:00:00 13.9 2 Oeste 10 Sudoeste 0 -- -- 71
2019-03-19 09:00:00 11 4 Sur 9 Sur 0 -- -- 78
2019-03-19 08:00:00 10.3 0 Calma 10 Este 0 -- -- 74
2019-03-19 07:00:00 10 0 Calma 10 Sur 0 -- -- 84
2019-03-19 06:00:00 10.3 5 Sudeste 10 Nordeste 0 -- -- 76
2019-03-19 05:00:00 10 0 Calma 5 Noroeste 0 -- -- 89
2019-03-19 04:00:00 10.2 2 Noroeste 5 Oeste 0 -- -- 92
2019-03-19 03:00:00 10.4 3 Nordeste 10 Nordeste 0 -- -- 91
2019-03-19 02:00:00 10.7 4 Este 9 Este 0 -- -- 91
2019-03-19 01:00:00 10.9 2 Sudoeste 4 Sudoeste 0 -- -- 89
2019-03-19 00:00:00 11.4 0 Calma 8 Este 0 -- -- 86